sensor_id;sensor_type;location;lat;lon;timestamp;pressure;altitude;pressure_sealevel;temperature;humidity
54554;BME280;40450;55.848;-3.572;2024-01-11T00:02:16;101773.91;;;3.52;69.14
54554;BME280;40450;55.848;-3.572;2024-01-11T00:04:40;101773.01;;;3.07;70.40
54554;BME280;40450;55.848;-3.572;2024-01-11T00:07:05;101778.92;;;3.36;70.65
54554;BME280;40450;55.848;-3.572;2024-01-11T00:09:31;101780.45;;;3.43;70.00
54554;BME280;40450;55.848;-3.572;2024-01-11T00:11:56;101783.46;;;2.45;72.90
54554;BME280;40450;55.848;-3.572;2024-01-11T00:14:21;101779.50;;;2.96;70.85
54554;BME280;40450;55.848;-3.572;2024-01-11T00:16:47;101785.91;;;3.70;70.76
54554;BME280;40450;55.848;-3.572;2024-01-11T00:19:12;101781.13;;;4.15;69.91
54554;BME280;40450;55.848;-3.572;2024-01-11T00:21:37;101780.54;;;3.44;70.56
54554;BME280;40450;55.848;-3.572;2024-01-11T00:24:03;101780.50;;;3.63;71.02
54554;BME280;40450;55.848;-3.572;2024-01-11T00:26:28;101779.93;;;4.10;70.00
54554;BME280;40450;55.848;-3.572;2024-01-11T00:28:53;101783.67;;;2.84;71.73
54554;BME280;40450;55.848;-3.572;2024-01-11T00:31:18;101782.24;;;3.20;73.26
54554;BME280;40450;55.848;-3.572;2024-01-11T00:33:44;101783.75;;;2.92;72.29
54554;BME280;40450;55.848;-3.572;2024-01-11T00:36:09;101788.01;;;2.90;73.51
54554;BME280;40450;55.848;-3.572;2024-01-11T00:38:34;101786.35;;;3.38;72.52
54554;BME280;40450;55.848;-3.572;2024-01-11T00:40:59;101789.06;;;2.71;73.87
54554;BME280;40450;55.848;-3.572;2024-01-11T00:43:25;101788.87;;;3.03;73.21
54554;BME280;40450;55.848;-3.572;2024-01-11T00:45:50;101792.59;;;3.00;74.58
54554;BME280;40450;55.848;-3.572;2024-01-11T00:48:15;101790.65;;;3.21;73.58
54554;BME280;40450;55.848;-3.572;2024-01-11T00:50:40;101791.03;;;2.95;73.17
54554;BME280;40450;55.848;-3.572;2024-01-11T00:53:06;101792.03;;;2.85;73.31
54554;BME280;40450;55.848;-3.572;2024-01-11T00:55:31;101788.90;;;3.32;72.83
54554;BME280;40450;55.848;-3.572;2024-01-11T00:57:56;101797.51;;;2.54;74.79
54554;BME280;40450;55.848;-3.572;2024-01-11T01:00:22;101796.70;;;2.80;74.42
54554;BME280;40450;55.848;-3.572;2024-01-11T01:02:46;101788.49;;;2.30;75.60
54554;BME280;40450;55.848;-3.572;2024-01-11T01:05:20;101797.29;;;1.79;76.76
54554;BME280;40450;55.848;-3.572;2024-01-11T01:07:42;101792.44;;;2.36;75.73
54554;BME280;40450;55.848;-3.572;2024-01-11T01:10:02;101789.23;;;2.39;76.06
54554;BME280;40450;55.848;-3.572;2024-01-11T01:12:27;101791.01;;;2.61;76.03
54554;BME280;40450;55.848;-3.572;2024-01-11T01:14:53;101786.24;;;2.75;75.54
54554;BME280;40450;55.848;-3.572;2024-01-11T01:19:43;101794.43;;;2.26;76.52
54554;BME280;40450;55.848;-3.572;2024-01-11T01:22:13;101794.95;;;1.88;77.85
54554;BME280;40450;55.848;-3.572;2024-01-11T01:24:33;101797.22;;;2.33;78.13
54554;BME280;40450;55.848;-3.572;2024-01-11T01:26:59;101798.81;;;1.65;78.68
54554;BME280;40450;55.848;-3.572;2024-01-11T01:29:27;101799.04;;;2.40;77.90
54554;BME280;40450;55.848;-3.572;2024-01-11T01:31:49;101797.11;;;2.25;78.47
54554;BME280;40450;55.848;-3.572;2024-01-11T01:34:14;101798.24;;;1.00;80.61
54554;BME280;40450;55.848;-3.572;2024-01-11T01:36:40;101795.45;;;2.97;77.75
54554;BME280;40450;55.848;-3.572;2024-01-11T01:39:05;101795.89;;;1.37;78.48
54554;BME280;40450;55.848;-3.572;2024-01-11T01:41:30;101800.13;;;2.28;77.62
54554;BME280;40450;55.848;-3.572;2024-01-11T01:44:06;101796.75;;;2.70;77.61
54554;BME280;40450;55.848;-3.572;2024-01-11T01:46:23;101801.13;;;2.28;76.83
54554;BME280;40450;55.848;-3.572;2024-01-11T01:48:47;101803.88;;;2.88;76.95
54554;BME280;40450;55.848;-3.572;2024-01-11T01:51:12;101799.14;;;2.42;77.28
54554;BME280;40450;55.848;-3.572;2024-01-11T01:53:42;101803.96;;;2.33;76.93
54554;BME280;40450;55.848;-3.572;2024-01-11T01:56:02;101805.18;;;2.25;76.50
54554;BME280;40450;55.848;-3.572;2024-01-11T01:58:28;101805.95;;;2.51;75.85
54554;BME280;40450;55.848;-3.572;2024-01-11T02:00:53;101801.56;;;2.69;76.49
54554;BME280;40450;55.848;-3.572;2024-01-11T02:03:20;101803.23;;;2.20;75.75
54554;BME280;40450;55.848;-3.572;2024-01-11T02:05:44;101803.27;;;3.25;73.93
54554;BME280;40450;55.848;-3.572;2024-01-11T02:08:15;101803.03;;;3.24;71.70
54554;BME280;40450;55.848;-3.572;2024-01-11T02:10:34;101806.92;;;3.49;73.12
54554;BME280;40450;55.848;-3.572;2024-01-11T02:12:59;101804.33;;;4.55;71.44
54554;BME280;40450;55.848;-3.572;2024-01-11T02:15:24;101808.53;;;4.15;69.52
54554;BME280;40450;55.848;-3.572;2024-01-11T02:17:50;101809.69;;;4.28;68.85
54554;BME280;40450;55.848;-3.572;2024-01-11T02:20:16;101817.31;;;3.81;70.14
54554;BME280;40450;55.848;-3.572;2024-01-11T02:22:46;101813.74;;;3.39;71.16
54554;BME280;40450;55.848;-3.572;2024-01-11T02:25:07;101819.83;;;4.48;70.40
54554;BME280;40450;55.848;-3.572;2024-01-11T02:27:35;101824.65;;;4.65;69.35
54554;BME280;40450;55.848;-3.572;2024-01-11T02:29:56;101822.00;;;4.88;69.11
54554;BME280;40450;55.848;-3.572;2024-01-11T02:32:22;101819.52;;;3.27;70.05
54554;BME280;40450;55.848;-3.572;2024-01-11T02:34:47;101827.96;;;2.64;72.69
54554;BME280;40450;55.848;-3.572;2024-01-11T02:37:12;101827.97;;;3.12;72.63
54554;BME280;40450;55.848;-3.572;2024-01-11T02:39:38;101835.06;;;2.82;72.99
54554;BME280;40450;55.848;-3.572;2024-01-11T02:42:04;101834.88;;;3.66;71.69
54554;BME280;40450;55.848;-3.572;2024-01-11T02:44:28;101839.39;;;2.46;72.22
54554;BME280;40450;55.848;-3.572;2024-01-11T02:46:53;101835.76;;;2.95;73.27
54554;BME280;40450;55.848;-3.572;2024-01-11T02:49:19;101832.43;;;3.00;72.15
54554;BME280;40450;55.848;-3.572;2024-01-11T02:51:44;101839.29;;;3.60;71.85
54554;BME280;40450;55.848;-3.572;2024-01-11T02:54:09;101845.43;;;4.16;71.25
54554;BME280;40450;55.848;-3.572;2024-01-11T02:56:34;101846.56;;;3.86;70.92
54554;BME280;40450;55.848;-3.572;2024-01-11T02:58:59;101842.78;;;3.87;70.93
54554;BME280;40450;55.848;-3.572;2024-01-11T03:01:24;101844.39;;;3.09;72.33
54554;BME280;40450;55.848;-3.572;2024-01-11T03:03:54;101843.00;;;3.53;71.77
54554;BME280;40450;55.848;-3.572;2024-01-11T03:06:15;101847.44;;;2.82;72.92
54554;BME280;40450;55.848;-3.572;2024-01-11T03:08:40;101851.33;;;3.24;71.89
54554;BME280;40450;55.848;-3.572;2024-01-11T03:11:06;101847.63;;;3.95;71.38
54554;BME280;40450;55.848;-3.572;2024-01-11T03:13:31;101846.09;;;2.81;71.23
54554;BME280;40450;55.848;-3.572;2024-01-11T03:15:56;101851.92;;;3.45;71.89
54554;BME280;40450;55.848;-3.572;2024-01-11T03:18:21;101852.24;;;3.59;71.05
54554;BME280;40450;55.848;-3.572;2024-01-11T03:20:52;101853.27;;;3.27;71.42
54554;BME280;40450;55.848;-3.572;2024-01-11T03:23:12;101858.46;;;3.24;71.52
54554;BME280;40450;55.848;-3.572;2024-01-11T03:25:37;101855.07;;;3.44;69.90
54554;BME280;40450;55.848;-3.572;2024-01-11T03:28:05;101858.73;;;3.26;71.48
54554;BME280;40450;55.848;-3.572;2024-01-11T03:30:28;101862.67;;;2.27;74.74
54554;BME280;40450;55.848;-3.572;2024-01-11T03:32:53;101864.33;;;2.76;74.19
54554;BME280;40450;55.848;-3.572;2024-01-11T03:35:18;101862.77;;;2.46;74.37
54554;BME280;40450;55.848;-3.572;2024-01-11T03:37:44;101871.85;;;2.71;74.58
54554;BME280;40450;55.848;-3.572;2024-01-11T03:40:09;101870.75;;;2.38;74.88
54554;BME280;40450;55.848;-3.572;2024-01-11T03:42:34;101867.41;;;3.35;74.16
54554;BME280;40450;55.848;-3.572;2024-01-11T03:44:59;101866.40;;;3.30;72.54
54554;BME280;40450;55.848;-3.572;2024-01-11T03:47:24;101870.47;;;3.12;71.89
54554;BME280;40450;55.848;-3.572;2024-01-11T03:49:50;101868.40;;;2.78;72.06
54554;BME280;40450;55.848;-3.572;2024-01-11T03:52:18;101873.16;;;2.42;73.46
54554;BME280;40450;55.848;-3.572;2024-01-11T03:54:40;101876.63;;;1.56;75.17
54554;BME280;40450;55.848;-3.572;2024-01-11T03:57:06;101874.33;;;3.18;73.04
54554;BME280;40450;55.848;-3.572;2024-01-11T03:59:30;101872.12;;;3.65;71.97
54554;BME280;40450;55.848;-3.572;2024-01-11T04:01:56;101874.11;;;3.92;70.93
54554;BME280;40450;55.848;-3.572;2024-01-11T04:04:21;101875.17;;;4.12;69.44
54554;BME280;40450;55.848;-3.572;2024-01-11T04:06:46;101878.60;;;3.96;68.63
54554;BME280;40450;55.848;-3.572;2024-01-11T04:09:11;101876.91;;;4.02;68.50
54554;BME280;40450;55.848;-3.572;2024-01-11T04:11:37;101875.60;;;4.73;68.60
54554;BME280;40450;55.848;-3.572;2024-01-11T04:14:02;101870.19;;;4.01;67.27
54554;BME280;40450;55.848;-3.572;2024-01-11T04:16:29;101867.03;;;3.55;68.02
54554;BME280;40450;55.848;-3.572;2024-01-11T04:18:52;101873.73;;;4.79;67.31
54554;BME280;40450;55.848;-3.572;2024-01-11T04:21:22;101872.89;;;4.44;66.50
54554;BME280;40450;55.848;-3.572;2024-01-11T04:23:43;101876.24;;;3.16;68.59
54554;BME280;40450;55.848;-3.572;2024-01-11T04:26:08;101878.26;;;3.20;69.75
54554;BME280;40450;55.848;-3.572;2024-01-11T04:28:37;101880.06;;;2.75;70.28
54554;BME280;40450;55.848;-3.572;2024-01-11T04:30:58;101878.45;;;3.72;69.62
54554;BME280;40450;55.848;-3.572;2024-01-11T04:33:24;101877.83;;;3.34;69.59
54554;BME280;40450;55.848;-3.572;2024-01-11T04:35:49;101879.03;;;2.66;70.44
54554;BME280;40450;55.848;-3.572;2024-01-11T04:38:14;101877.85;;;3.19;69.54
54554;BME280;40450;55.848;-3.572;2024-01-11T04:40:40;101875.16;;;4.05;69.53
54554;BME280;40450;55.848;-3.572;2024-01-11T04:43:05;101874.18;;;3.94;67.82
54554;BME280;40450;55.848;-3.572;2024-01-11T04:45:30;101876.76;;;4.48;66.67
54554;BME280;40450;55.848;-3.572;2024-01-11T04:47:56;101876.31;;;4.28;67.73
54554;BME280;40450;55.848;-3.572;2024-01-11T04:50:21;101873.38;;;5.07;66.52
54554;BME280;40450;55.848;-3.572;2024-01-11T04:52:46;101870.94;;;4.86;66.24
54554;BME280;40450;55.848;-3.572;2024-01-11T04:55:17;101872.11;;;3.61;67.89
54554;BME280;40450;55.848;-3.572;2024-01-11T04:57:37;101871.85;;;3.82;68.48
54554;BME280;40450;55.848;-3.572;2024-01-11T05:00:02;101874.33;;;3.53;67.77
54554;BME280;40450;55.848;-3.572;2024-01-11T05:02:27;101884.01;;;2.76;71.03
54554;BME280;40450;55.848;-3.572;2024-01-11T05:04:52;101886.00;;;3.39;70.47
54554;BME280;40450;55.848;-3.572;2024-01-11T05:07:18;101888.92;;;3.25;69.43
54554;BME280;40450;55.848;-3.572;2024-01-11T05:09:43;101895.93;;;3.01;70.31
54554;BME280;40450;55.848;-3.572;2024-01-11T05:12:15;101895.53;;;2.66;70.54
54554;BME280;40450;55.848;-3.572;2024-01-11T05:14:33;101894.21;;;2.84;70.83
54554;BME280;40450;55.848;-3.572;2024-01-11T05:16:59;101893.46;;;3.05;70.73
54554;BME280;40450;55.848;-3.572;2024-01-11T05:19:24;101894.69;;;3.77;69.78
54554;BME280;40450;55.848;-3.572;2024-01-11T05:21:50;101901.81;;;3.52;68.72
54554;BME280;40450;55.848;-3.572;2024-01-11T05:24:14;101899.72;;;3.00;69.24
54554;BME280;40450;55.848;-3.572;2024-01-11T05:26:39;101896.15;;;4.02;68.95
54554;BME280;40450;55.848;-3.572;2024-01-11T05:29:05;101891.85;;;3.63;68.38
54554;BME280;40450;55.848;-3.572;2024-01-11T05:31:30;101892.29;;;4.55;68.00
54554;BME280;40450;55.848;-3.572;2024-01-11T05:33:55;101887.21;;;4.49;68.07
54554;BME280;40450;55.848;-3.572;2024-01-11T05:36:20;101887.50;;;3.32;67.65
54554;BME280;40450;55.848;-3.572;2024-01-11T05:38:46;101891.39;;;4.51;67.47
54554;BME280;40450;55.848;-3.572;2024-01-11T05:41:15;101888.63;;;4.26;66.44
54554;BME280;40450;55.848;-3.572;2024-01-11T05:43:37;101887.01;;;3.83;66.82
54554;BME280;40450;55.848;-3.572;2024-01-11T05:46:02;101889.44;;;3.91;68.23
54554;BME280;40450;55.848;-3.572;2024-01-11T05:48:27;101892.32;;;3.76;67.35
54554;BME280;40450;55.848;-3.572;2024-01-11T05:50:52;101889.96;;;3.85;66.22
54554;BME280;40450;55.848;-3.572;2024-01-11T05:53:20;101894.29;;;3.14;68.98
54554;BME280;40450;55.848;-3.572;2024-01-11T05:55:42;101894.81;;;1.89;72.20
54554;BME280;40450;55.848;-3.572;2024-01-11T05:58:08;101893.41;;;3.31;71.02
54554;BME280;40450;55.848;-3.572;2024-01-11T06:00:33;101895.23;;;2.99;69.87
54554;BME280;40450;55.848;-3.572;2024-01-11T06:02:58;101895.05;;;3.26;69.40
54554;BME280;40450;55.848;-3.572;2024-01-11T06:05:25;101897.74;;;3.43;69.30
54554;BME280;40450;55.848;-3.572;2024-01-11T06:07:49;101903.08;;;2.91;70.30
54554;BME280;40450;55.848;-3.572;2024-01-11T06:10:14;101899.23;;;3.13;70.15
54554;BME280;40450;55.848;-3.572;2024-01-11T06:12:39;101904.66;;;1.54;73.42
54554;BME280;40450;55.848;-3.572;2024-01-11T06:15:05;101900.95;;;1.90;73.37
54554;BME280;40450;55.848;-3.572;2024-01-11T06:17:29;101906.11;;;3.03;71.43
54554;BME280;40450;55.848;-3.572;2024-01-11T06:19:55;101907.77;;;3.84;69.03
54554;BME280;40450;55.848;-3.572;2024-01-11T06:22:20;101912.17;;;4.22;68.45
54554;BME280;40450;55.848;-3.572;2024-01-11T06:24:45;101917.08;;;4.28;67.44
54554;BME280;40450;55.848;-3.572;2024-01-11T06:27:10;101921.62;;;3.06;69.28
54554;BME280;40450;55.848;-3.572;2024-01-11T06:29:36;101924.26;;;3.52;68.93
54554;BME280;40450;55.848;-3.572;2024-01-11T06:32:01;101925.85;;;3.64;67.83
54554;BME280;40450;55.848;-3.572;2024-01-11T06:34:26;101931.74;;;4.38;66.99
54554;BME280;40450;55.848;-3.572;2024-01-11T06:36:56;101937.24;;;3.49;67.25
54554;BME280;40450;55.848;-3.572;2024-01-11T06:39:17;101944.71;;;3.02;67.83
54554;BME280;40450;55.848;-3.572;2024-01-11T06:41:42;101943.77;;;3.33;68.89
54554;BME280;40450;55.848;-3.572;2024-01-11T06:44:07;101943.94;;;3.59;67.53
54554;BME280;40450;55.848;-3.572;2024-01-11T06:46:32;101946.91;;;4.88;66.99
54554;BME280;40450;55.848;-3.572;2024-01-11T06:48:58;101950.29;;;4.98;66.75
54554;BME280;40450;55.848;-3.572;2024-01-11T06:51:23;101959.73;;;5.68;64.84
54554;BME280;40450;55.848;-3.572;2024-01-11T06:53:48;101955.01;;;4.07;64.91
54554;BME280;40450;55.848;-3.572;2024-01-11T06:56:14;101962.50;;;4.09;64.85
54554;BME280;40450;55.848;-3.572;2024-01-11T06:58:38;101970.49;;;3.78;64.99
54554;BME280;40450;55.848;-3.572;2024-01-11T07:01:04;101968.54;;;4.01;65.28
54554;BME280;40450;55.848;-3.572;2024-01-11T07:03:29;101969.26;;;4.02;65.25
54554;BME280;40450;55.848;-3.572;2024-01-11T07:05:54;101973.37;;;3.72;65.11
54554;BME280;40450;55.848;-3.572;2024-01-11T07:08:20;101978.28;;;3.68;66.68
54554;BME280;40450;55.848;-3.572;2024-01-11T07:10:45;101978.48;;;3.40;66.51
54554;BME280;40450;55.848;-3.572;2024-01-11T07:13:10;101983.92;;;3.59;66.22
54554;BME280;40450;55.848;-3.572;2024-01-11T07:15:37;101984.89;;;3.54;66.45
54554;BME280;40450;55.848;-3.572;2024-01-11T07:18:01;101988.41;;;4.15;65.79
54554;BME280;40450;55.848;-3.572;2024-01-11T07:20:26;101990.11;;;3.87;64.98
54554;BME280;40450;55.848;-3.572;2024-01-11T07:22:51;101993.00;;;4.29;64.97
54554;BME280;40450;55.848;-3.572;2024-01-11T07:25:16;101991.30;;;5.01;64.47
54554;BME280;40450;55.848;-3.572;2024-01-11T07:27:41;101994.57;;;3.94;64.27
54554;BME280;40450;55.848;-3.572;2024-01-11T07:30:09;101996.81;;;3.60;64.77
54554;BME280;40450;55.848;-3.572;2024-01-11T07:32:32;101996.26;;;4.37;63.93
54554;BME280;40450;55.848;-3.572;2024-01-11T07:34:57;102001.91;;;3.74;64.10
54554;BME280;40450;55.848;-3.572;2024-01-11T07:37:22;102006.54;;;4.50;63.78
54554;BME280;40450;55.848;-3.572;2024-01-11T07:39:47;102010.00;;;4.13;64.20
54554;BME280;40450;55.848;-3.572;2024-01-11T07:42:14;102017.28;;;4.08;64.81
54554;BME280;40450;55.848;-3.572;2024-01-11T07:44:38;102019.69;;;3.10;66.91
54554;BME280;40450;55.848;-3.572;2024-01-11T07:47:03;102023.90;;;3.41;66.48
54554;BME280;40450;55.848;-3.572;2024-01-11T07:49:29;102027.64;;;3.52;66.79
54554;BME280;40450;55.848;-3.572;2024-01-11T07:51:54;102028.83;;;2.86;67.72
54554;BME280;40450;55.848;-3.572;2024-01-11T07:54:19;102037.09;;;3.44;66.64
54554;BME280;40450;55.848;-3.572;2024-01-11T07:56:44;102040.18;;;3.25;66.76
54554;BME280;40450;55.848;-3.572;2024-01-11T07:59:09;102040.53;;;3.56;66.47
54554;BME280;40450;55.848;-3.572;2024-01-11T08:01:36;102045.40;;;3.24;67.45
54554;BME280;40450;55.848;-3.572;2024-01-11T08:04:01;102051.42;;;2.72;68.29
54554;BME280;40450;55.848;-3.572;2024-01-11T08:06:25;102050.48;;;3.36;67.75
54554;BME280;40450;55.848;-3.572;2024-01-11T08:08:51;102050.23;;;3.57;68.09
54554;BME280;40450;55.848;-3.572;2024-01-11T08:11:16;102051.61;;;1.64;71.06
54554;BME280;40450;55.848;-3.572;2024-01-11T08:13:41;102051.01;;;2.15;71.19
54554;BME280;40450;55.848;-3.572;2024-01-11T08:16:06;102051.46;;;2.17;71.47
54554;BME280;40450;55.848;-3.572;2024-01-11T08:18:32;102050.19;;;2.94;70.16
54554;BME280;40450;55.848;-3.572;2024-01-11T08:20:57;102047.89;;;3.11;69.08
54554;BME280;40450;55.848;-3.572;2024-01-11T08:23:22;102052.18;;;3.51;68.39
54554;BME280;40450;55.848;-3.572;2024-01-11T08:25:48;102048.05;;;3.69;67.85
54554;BME280;40450;55.848;-3.572;2024-01-11T08:28:13;102048.76;;;2.94;68.95
54554;BME280;40450;55.848;-3.572;2024-01-11T08:30:38;102055.13;;;3.93;67.34
54554;BME280;40450;55.848;-3.572;2024-01-11T08:33:04;102055.80;;;4.88;65.88
54554;BME280;40450;55.848;-3.572;2024-01-11T08:35:29;102063.33;;;4.19;66.04
54554;BME280;40450;55.848;-3.572;2024-01-11T08:37:54;102066.93;;;3.92;65.26
54554;BME280;40450;55.848;-3.572;2024-01-11T08:40:19;102067.59;;;5.20;64.79
54554;BME280;40450;55.848;-3.572;2024-01-11T08:42:44;102065.16;;;5.07;64.52
54554;BME280;40450;55.848;-3.572;2024-01-11T08:45:10;102065.41;;;5.66;63.00
54554;BME280;40450;55.848;-3.572;2024-01-11T08:47:36;102067.31;;;5.01;62.22
54554;BME280;40450;55.848;-3.572;2024-01-11T08:50:00;102068.84;;;4.18;62.48
54554;BME280;40450;55.848;-3.572;2024-01-11T08:52:25;102068.62;;;5.08;62.78
54554;BME280;40450;55.848;-3.572;2024-01-11T08:54:51;102067.10;;;5.70;62.04
54554;BME280;40450;55.848;-3.572;2024-01-11T08:57:16;102063.26;;;5.28;61.82
54554;BME280;40450;55.848;-3.572;2024-01-11T08:59:42;102063.66;;;5.00;61.57
54554;BME280;40450;55.848;-3.572;2024-01-11T09:02:07;102060.03;;;4.61;61.10
54554;BME280;40450;55.848;-3.572;2024-01-11T09:04:32;102070.60;;;4.38;62.29
54554;BME280;40450;55.848;-3.572;2024-01-11T09:06:57;102069.36;;;4.95;62.41
54554;BME280;40450;55.848;-3.572;2024-01-11T09:09:23;102069.22;;;5.23;61.45
54554;BME280;40450;55.848;-3.572;2024-01-11T09:11:48;102066.12;;;4.96;60.72
54554;BME280;40450;55.848;-3.572;2024-01-11T09:14:13;102068.90;;;4.68;61.77
54554;BME280;40450;55.848;-3.572;2024-01-11T09:16:38;102074.12;;;5.31;61.40
54554;BME280;40450;55.848;-3.572;2024-01-11T09:19:04;102070.21;;;5.77;60.29
54554;BME280;40450;55.848;-3.572;2024-01-11T09:21:29;102073.34;;;5.55;59.99
54554;BME280;40450;55.848;-3.572;2024-01-11T09:23:54;102076.76;;;5.27;60.00
54554;BME280;40450;55.848;-3.572;2024-01-11T09:26:19;102081.10;;;5.08;60.09
54554;BME280;40450;55.848;-3.572;2024-01-11T09:28:45;102083.60;;;5.31;59.38
54554;BME280;40450;55.848;-3.572;2024-01-11T09:31:10;102087.26;;;4.11;60.62
54554;BME280;40450;55.848;-3.572;2024-01-11T09:33:35;102084.45;;;4.49;60.33
54554;BME280;40450;55.848;-3.572;2024-01-11T09:36:00;102086.08;;;4.05;60.65
54554;BME280;40450;55.848;-3.572;2024-01-11T09:38:26;102084.62;;;4.28;61.11
54554;BME280;40450;55.848;-3.572;2024-01-11T09:40:59;102087.71;;;4.29;60.83
54554;BME280;40450;55.848;-3.572;2024-01-11T09:43:16;102086.07;;;5.25;60.29
54554;BME280;40450;55.848;-3.572;2024-01-11T09:45:41;102089.95;;;5.22;60.01
54554;BME280;40450;55.848;-3.572;2024-01-11T09:48:08;102094.28;;;3.48;62.16
54554;BME280;40450;55.848;-3.572;2024-01-11T09:50:32;102093.90;;;4.23;61.31
54554;BME280;40450;55.848;-3.572;2024-01-11T09:52:57;102093.27;;;5.21;60.63
54554;BME280;40450;55.848;-3.572;2024-01-11T09:55:22;102091.74;;;5.19;59.72
54554;BME280;40450;55.848;-3.572;2024-01-11T09:57:48;102097.61;;;3.68;61.04
54554;BME280;40450;55.848;-3.572;2024-01-11T10:00:16;102091.86;;;4.17;60.28
54554;BME280;40450;55.848;-3.572;2024-01-11T10:02:38;102089.09;;;5.05;60.51
54554;BME280;40450;55.848;-3.572;2024-01-11T10:05:05;102093.24;;;4.79;61.01
54554;BME280;40450;55.848;-3.572;2024-01-11T10:07:30;102099.45;;;4.01;61.12
54554;BME280;40450;55.848;-3.572;2024-01-11T10:09:54;102096.25;;;3.68;61.55
54554;BME280;40450;55.848;-3.572;2024-01-11T10:12:20;102098.36;;;4.45;61.08
54554;BME280;40450;55.848;-3.572;2024-01-11T10:14:44;102102.29;;;5.15;60.60
54554;BME280;40450;55.848;-3.572;2024-01-11T10:17:10;102097.49;;;3.50;60.39
54554;BME280;40450;55.848;-3.572;2024-01-11T10:19:35;102102.36;;;3.34;62.77
54554;BME280;40450;55.848;-3.572;2024-01-11T10:22:00;102100.32;;;3.97;61.50
54554;BME280;40450;55.848;-3.572;2024-01-11T10:24:25;102100.18;;;4.59;61.92
54554;BME280;40450;55.848;-3.572;2024-01-11T10:26:51;102103.15;;;4.60;62.05
54554;BME280;40450;55.848;-3.572;2024-01-11T10:29:16;102107.80;;;5.81;60.61
54554;BME280;40450;55.848;-3.572;2024-01-11T10:31:41;102109.65;;;3.90;60.44
54554;BME280;40450;55.848;-3.572;2024-01-11T10:34:07;102109.87;;;5.10;61.09
54554;BME280;40450;55.848;-3.572;2024-01-11T10:36:32;102112.86;;;4.87;60.13
54554;BME280;40450;55.848;-3.572;2024-01-11T10:38:59;102119.88;;;3.75;61.07
54554;BME280;40450;55.848;-3.572;2024-01-11T10:41:23;102119.10;;;4.60;61.04
54554;BME280;40450;55.848;-3.572;2024-01-11T10:43:48;102127.00;;;4.06;61.46
54554;BME280;40450;55.848;-3.572;2024-01-11T10:46:14;102128.64;;;4.25;61.43
54554;BME280;40450;55.848;-3.572;2024-01-11T10:48:39;102133.12;;;4.06;61.62
54554;BME280;40450;55.848;-3.572;2024-01-11T10:51:07;102132.98;;;4.54;61.27
54554;BME280;40450;55.848;-3.572;2024-01-11T10:53:36;102135.75;;;3.50;62.10
54554;BME280;40450;55.848;-3.572;2024-01-11T10:55:55;102132.53;;;4.44;61.91
54554;BME280;40450;55.848;-3.572;2024-01-11T10:58:20;102131.83;;;3.14;63.54
54554;BME280;40450;55.848;-3.572;2024-01-11T11:00:45;102131.07;;;3.75;63.46
54554;BME280;40450;55.848;-3.572;2024-01-11T11:03:10;102130.42;;;3.73;64.53
54554;BME280;40450;55.848;-3.572;2024-01-11T11:05:35;102129.24;;;3.33;65.65
54554;BME280;40450;55.848;-3.572;2024-01-11T11:08:01;102128.69;;;2.96;65.55
54554;BME280;40450;55.848;-3.572;2024-01-11T11:10:26;102121.58;;;4.12;63.67
54554;BME280;40450;55.848;-3.572;2024-01-11T11:12:51;102128.33;;;2.41;67.17
54554;BME280;40450;55.848;-3.572;2024-01-11T11:15:16;102121.82;;;3.71;65.44
54554;BME280;40450;55.848;-3.572;2024-01-11T11:17:42;102133.20;;;2.56;67.30
54554;BME280;40450;55.848;-3.572;2024-01-11T11:20:08;102137.64;;;2.16;68.89
54554;BME280;40450;55.848;-3.572;2024-01-11T11:22:34;102137.20;;;3.08;67.54
54554;BME280;40450;55.848;-3.572;2024-01-11T11:25:03;102138.52;;;4.33;65.56
54554;BME280;40450;55.848;-3.572;2024-01-11T11:27:27;102141.79;;;2.88;65.54
54554;BME280;40450;55.848;-3.572;2024-01-11T11:29:47;102142.36;;;4.30;64.37
54554;BME280;40450;55.848;-3.572;2024-01-11T11:32:14;102144.07;;;5.00;63.82
54554;BME280;40450;55.848;-3.572;2024-01-11T11:34:41;102150.29;;;3.77;63.37
54554;BME280;40450;55.848;-3.572;2024-01-11T11:37:03;102149.37;;;3.53;64.52
54554;BME280;40450;55.848;-3.572;2024-01-11T11:39:30;102149.06;;;5.02;63.77
54554;BME280;40450;55.848;-3.572;2024-01-11T11:41:53;102146.33;;;5.04;61.73
54554;BME280;40450;55.848;-3.572;2024-01-11T11:44:19;102151.97;;;3.67;63.30
54554;BME280;40450;55.848;-3.572;2024-01-11T11:46:45;102147.56;;;4.31;62.87
54554;BME280;40450;55.848;-3.572;2024-01-11T11:49:11;102144.85;;;3.94;62.09
54554;BME280;40450;55.848;-3.572;2024-01-11T11:51:35;102146.48;;;3.58;63.77
54554;BME280;40450;55.848;-3.572;2024-01-11T11:54:02;102143.96;;;5.05;62.80
54554;BME280;40450;55.848;-3.572;2024-01-11T11:56:25;102143.42;;;4.75;62.29
54554;BME280;40450;55.848;-3.572;2024-01-11T11:58:51;102142.33;;;4.93;61.92
54554;BME280;40450;55.848;-3.572;2024-01-11T12:01:17;102145.89;;;4.07;62.85
54554;BME280;40450;55.848;-3.572;2024-01-11T12:03:42;102146.75;;;4.07;63.28
54554;BME280;40450;55.848;-3.572;2024-01-11T12:06:08;102151.24;;;3.38;63.66
54554;BME280;40450;55.848;-3.572;2024-01-11T12:08:32;102150.60;;;4.22;63.35
54554;BME280;40450;55.848;-3.572;2024-01-11T12:11:03;102152.22;;;3.47;64.26
54554;BME280;40450;55.848;-3.572;2024-01-11T12:13:22;102150.59;;;4.87;63.10
54554;BME280;40450;55.848;-3.572;2024-01-11T12:15:48;102154.01;;;4.54;63.26
54554;BME280;40450;55.848;-3.572;2024-01-11T12:18:13;102158.05;;;4.10;62.88
54554;BME280;40450;55.848;-3.572;2024-01-11T12:20:38;102154.19;;;3.59;63.70
54554;BME280;40450;55.848;-3.572;2024-01-11T12:23:04;102158.00;;;4.02;64.07
54554;BME280;40450;55.848;-3.572;2024-01-11T12:25:36;102158.68;;;3.94;63.99
54554;BME280;40450;55.848;-3.572;2024-01-11T12:28:12;102157.31;;;4.69;63.45
54554;BME280;40450;55.848;-3.572;2024-01-11T12:30:22;102156.51;;;3.51;64.01
54554;BME280;40450;55.848;-3.572;2024-01-11T12:32:45;102157.04;;;2.75;66.03
54554;BME280;40450;55.848;-3.572;2024-01-11T12:35:10;102153.67;;;3.40;66.15
54554;BME280;40450;55.848;-3.572;2024-01-11T12:37:35;102155.72;;;3.03;66.83
54554;BME280;40450;55.848;-3.572;2024-01-11T12:40:00;102150.82;;;3.59;65.46
54554;BME280;40450;55.848;-3.572;2024-01-11T12:42:26;102143.19;;;3.10;66.78